Terminal Aerodrome Forecast
Issued by NWS

Home | Current Version | Previous Version | Text Only | Print | Product List | Glossary On
Versions: 1 2 3 4 5 6 7 8 9 10 11 12 13 14 15 16 17 18 19 20 21 22 23 24 25 26 27 28 29 30 31 32 33 34 35 36 37 38 39
000
FTUS44 KHGX 202333
TAFUTS
TAF
KUTS 202333Z 2100/2124 05006KT P6SM SCT030 BKN040 BKN110
     FM210400 17004KT 5SM BR SCT015 SCT120
      TEMPO 2109/2113 2SM BR BKN015
     FM211500 30006KT P6SM SCT015
     FM211800 33010KT P6SM SKC=

USA.gov is the U.S. government's official web portal to all federal, state and local government web resources and services.